Terminal Aerodrome Forecast
Issued by NWS

Home | Current Version | Previous Version | Text Only | Print | Product List | Glossary On
Versions: 1 2 3 4 5 6 7 8 9 10 11 12 13 14 15 16
365
FTUS43 KICT 260520
TAFHUT
TAF
KHUT 260520Z 2606/2706 36015G23KT P6SM VCSH OVC015
     FM261200 36016G23KT P6SM OVC025
     FM261600 35018G26KT P6SM SCT035 BKN150
     FM262300 33010KT P6SM SKC=

USA.gov is the U.S. government's official web portal to all federal, state and local government web resources and services.